Time;durP1;ratioP1;P1;durP2;ratioP2;P2;SDS_P1;SDS_P2;PMS_P1;PMS_P2;Temp;Humidity;BMP_temperature;BMP_pressure;BME280_temperature;BME280_humidity;BME280_pressure;Samples;Min_cycle;Max_cycle;Signal;HPM_P1;HPM_P2
2021/01/25 00:00:36;;;;;;;12.10;10.90;;;27.40;84.00;;;;;;5023676;28;20329;-51
2021/01/25 00:03:06;;;;;;;9.43;8.63;;;27.40;84.20;;;;;;5025445;28;20238;-55
2021/01/25 00:05:38;;;;;;;11.40;9.55;;;27.40;84.00;;;;;;5014424;28;20231;-55
2021/01/25 00:08:09;;;;;;;10.50;9.40;;;27.40;84.10;;;;;;5015226;28;20238;-54
2021/01/25 00:10:40;;;;;;;10.75;9.65;;;27.40;84.50;;;;;;5022733;28;20226;-51
2021/01/25 00:13:11;;;;;;;8.82;8.02;;;27.40;84.40;;;;;;5025114;28;20835;-51
2021/01/25 00:15:43;;;;;;;10.10;9.10;;;27.40;84.40;;;;;;4966295;28;20256;-55
2021/01/25 00:18:14;;;;;;;8.98;8.25;;;27.40;84.50;;;;;;4955676;28;20333;-54
2021/01/25 00:20:44;;;;;;;10.25;9.25;;;27.40;84.50;;;;;;4958051;28;20323;-52
2021/01/25 00:23:15;;;;;;;10.02;9.07;;;27.40;84.60;;;;;;4961648;28;20233;-55
2021/01/25 00:25:45;;;;;;;10.75;9.85;;;27.40;84.80;;;;;;4961086;28;20236;-51
2021/01/25 00:28:16;;;;;;;9.95;9.05;;;27.40;84.90;;;;;;4972059;28;20235;-53
2021/01/25 00:30:47;;;;;;;9.90;8.95;;;27.40;85.00;;;;;;4964959;28;20264;-52
2021/01/25 00:33:18;;;;;;;10.23;8.75;;;27.50;85.20;;;;;;4962565;28;20274;-51
2021/01/25 00:35:49;;;;;;;9.90;8.63;;;27.50;85.20;;;;;;4964251;28;20239;-52
2021/01/25 00:38:19;;;;;;;9.30;8.30;;;27.50;85.30;;;;;;4959650;28;20240;-50
2021/01/25 00:40:50;;;;;;;10.68;9.68;;;27.50;85.50;;;;;;4999956;28;20246;-49
2021/01/25 00:43:20;;;;;;;10.95;9.55;;;27.60;85.70;;;;;;5032277;28;20230;-54
2021/01/25 00:45:52;;;;;;;10.43;9.43;;;27.60;85.80;;;;;;5012598;28;20237;-50
2021/01/25 00:48:23;;;;;;;10.00;9.02;;;27.70;86.10;;;;;;5023697;28;20314;-55
2021/01/25 00:50:53;;;;;;;10.02;9.05;;;27.70;86.20;;;;;;5022531;28;20238;-55
2021/01/25 00:53:24;;;;;;;10.93;9.93;;;27.70;86.40;;;;;;5020570;28;20610;-53
2021/01/25 00:55:55;;;;;;;10.70;9.60;;;27.80;86.90;;;;;;5024376;28;20223;-54
2021/01/25 00:58:25;;;;;;;10.45;9.23;;;27.90;87.10;;;;;;5018490;28;20221;-53
2021/01/25 01:00:56;;;;;;;9.00;8.02;;;27.90;87.30;;;;;;5022104;28;20218;-53
2021/01/25 01:03:27;;;;;;;9.65;8.75;;;27.90;87.70;;;;;;5022490;28;20610;-51
2021/01/25 01:05:58;;;;;;;10.13;8.88;;;28.00;87.90;;;;;;5009115;28;20309;-49
2021/01/25 01:08:29;;;;;;;9.57;8.65;;;28.00;88.10;;;;;;5000193;28;20235;-49
2021/01/25 01:11:02;;;;;;;9.10;8.15;;;28.10;88.40;;;;;;5005336;28;20241;-51
2021/01/25 01:13:33;;;;;;;7.70;6.95;;;28.20;88.50;;;;;;5001131;28;20235;-52
2021/01/25 01:16:05;;;;;;;9.45;8.23;;;28.30;88.60;;;;;;5004465;28;20223;-51
2021/01/25 01:18:36;;;;;;;7.97;7.18;;;28.40;88.80;;;;;;5004391;28;20746;-55
2021/01/25 01:21:07;;;;;;;7.25;6.55;;;28.40;88.70;;;;;;5009421;28;20265;-51
2021/01/25 01:23:38;;;;;;;7.38;6.68;;;28.50;88.70;;;;;;5003779;28;20234;-54
2021/01/25 01:26:09;;;;;;;7.80;6.47;;;28.50;88.60;;;;;;4963683;28;20247;-53
2021/01/25 01:28:39;;;;;;;9.20;6.35;;;28.60;89.50;;;;;;4965974;28;20724;-51
2021/01/25 01:31:11;;;;;;;8.95;6.75;;;28.70;88.80;;;;;;4962182;28;20590;-55
2021/01/25 01:33:42;;;;;;;6.95;6.25;;;28.80;88.80;;;;;;4963919;28;20232;-55
2021/01/25 01:36:12;;;;;;;7.75;6.88;;;28.80;88.80;;;;;;4961387;28;20339;-50
2021/01/25 01:38:43;;;;;;;8.50;6.43;;;28.90;88.80;;;;;;4961913;28;20244;-52
2021/01/25 01:41:14;;;;;;;8.88;7.20;;;29.00;88.60;;;;;;4961644;28;20232;-53
2021/01/25 01:43:45;;;;;;;9.85;7.00;;;29.10;88.60;;;;;;4963374;28;20430;-52
2021/01/25 01:46:17;;;;;;;8.13;6.68;;;29.10;88.50;;;;;;4965356;28;20240;-51
2021/01/25 01:48:47;;;;;;;7.88;6.78;;;29.20;88.30;;;;;;4962386;28;20300;-54
2021/01/25 01:51:18;;;;;;;7.80;6.80;;;29.20;88.00;;;;;;4996284;28;20235;-54
2021/01/25 01:53:48;;;;;;;8.07;7.28;;;29.30;87.60;;;;;;5013279;28;20319;-49
2021/01/25 01:56:19;;;;;;;7.03;6.18;;;29.40;87.60;;;;;;5006104;28;20263;-51
2021/01/25 01:58:50;;;;;;;8.10;6.60;;;29.40;87.30;;;;;;5004416;28;20813;-52
2021/01/25 02:01:22;;;;;;;7.97;7.07;;;29.50;87.40;;;;;;5003166;28;20664;-50
2021/01/25 02:03:53;;;;;;;7.18;6.28;;;29.50;87.30;;;;;;5015981;28;20316;-50
2021/01/25 02:06:24;;;;;;;7.93;7.13;;;29.60;86.80;;;;;;5029886;28;20246;-51
2021/01/25 02:08:55;;;;;;;8.18;5.97;;;29.60;85.90;;;;;;5017992;28;20226;-51
2021/01/25 02:11:26;;;;;;;6.75;6.15;;;29.70;85.60;;;;;;5025134;28;20392;-54
2021/01/25 02:13:56;;;;;;;9.02;7.25;;;29.80;85.10;;;;;;5027423;28;20226;-52
2021/01/25 02:16:42;;;;;;;10.80;8.18;;;29.90;84.70;;;;;;5026204;28;20749;-52
2021/01/25 02:19:15;;;;;;;9.02;7.75;;;29.90;84.20;;;;;;5020166;28;20231;-52
2021/01/25 02:21:52;;;;;;;7.70;6.88;;;30.00;84.50;;;;;;5028954;28;20934;-49
2021/01/25 02:24:25;;;;;;;6.72;5.90;;;30.00;82.40;;;;;;5025110;28;20228;-52
2021/01/25 02:27:08;;;;;;;8.18;6.90;;;30.10;82.80;;;;;;5014933;28;20322;-52
2021/01/25 02:29:40;;;;;;;9.90;6.60;;;30.20;82.80;;;;;;5024352;28;20280;-49
2021/01/25 02:32:11;;;;;;;8.32;7.50;;;30.20;82.50;;;;;;5022950;28;20234;-53
2021/01/25 02:34:42;;;;;;;8.38;6.47;;;30.30;82.80;;;;;;5025162;28;20234;-51
2021/01/25 02:37:12;;;;;;;7.53;6.45;;;30.40;81.60;;;;;;5030569;28;20235;-52
2021/01/25 02:39:43;;;;;;;7.97;6.35;;;30.50;81.10;;;;;;5024315;28;20249;-54
2021/01/25 02:42:14;;;;;;;9.40;6.72;;;30.50;80.10;;;;;;5029947;28;20252;-54
2021/01/25 02:44:46;;;;;;;7.38;6.30;;;30.60;79.60;;;;;;5023407;28;20702;-54
2021/01/25 02:47:16;;;;;;;6.57;5.88;;;30.70;79.10;;;;;;5025749;28;20230;-53
2021/01/25 02:49:47;;;;;;;6.80;6.10;;;30.70;79.20;;;;;;5021642;28;20297;-51
2021/01/25 02:52:17;;;;;;;6.65;5.72;;;30.80;78.90;;;;;;5023679;28;20329;-51
2021/01/25 02:54:48;;;;;;;7.75;5.90;;;30.90;78.60;;;;;;5022725;28;20231;-52
2021/01/25 02:57:19;;;;;;;6.65;5.05;;;31.00;79.30;;;;;;5027280;28;20366;-54
2021/01/25 02:59:51;;;;;;;5.60;5.10;;;31.10;78.20;;;;;;5025900;28;20230;-54
2021/01/25 03:02:22;;;;;;;6.07;5.45;;;31.10;77.10;;;;;;5024462;28;20239;-54
2021/01/25 03:04:53;;;;;;;6.03;5.43;;;31.20;76.80;;;;;;5026876;28;20281;-54
2021/01/25 03:07:24;;;;;;;7.32;5.90;;;31.20;76.70;;;;;;5031279;28;20651;-52
2021/01/25 03:09:55;;;;;;;9.93;6.88;;;31.30;76.70;;;;;;5025580;28;20270;-54
2021/01/25 03:12:26;;;;;;;8.95;7.57;;;31.30;76.80;;;;;;5025093;28;20326;-55
2021/01/25 03:14:58;;;;;;;8.55;7.75;;;31.40;76.10;;;;;;5026622;28;20226;-54
2021/01/25 03:17:28;;;;;;;9.90;8.90;;;31.40;76.30;;;;;;5033956;28;20235;-55
2021/01/25 03:19:58;;;;;;;10.63;9.63;;;31.50;76.40;;;;;;5024362;28;20309;-52
2021/01/25 03:22:29;;;;;;;11.38;10.20;;;31.50;76.00;;;;;;5024074;28;20223;-52
2021/01/25 03:25:00;;;;;;;10.48;9.48;;;31.60;75.60;;;;;;5023851;28;20726;-52
2021/01/25 03:27:30;;;;;;;12.45;11.15;;;31.70;75.30;;;;;;5026410;28;20928;-52
2021/01/25 03:30:02;;;;;;;11.90;10.77;;;31.70;74.30;;;;;;5010695;28;20231;-51
2021/01/25 03:32:33;;;;;;;12.00;10.07;;;31.70;74.20;;;;;;5015417;28;20665;-49
2021/01/25 03:35:05;;;;;;;11.95;9.60;;;31.70;74.20;;;;;;5023283;28;20320;-51
2021/01/25 03:37:35;;;;;;;10.63;9.38;;;31.70;73.90;;;;;;5026337;28;20230;-53
2021/01/25 03:40:07;;;;;;;12.25;10.73;;;31.70;73.90;;;;;;5029677;28;20266;-54
2021/01/25 03:42:38;;;;;;;11.43;10.23;;;31.70;73.60;;;;;;5030919;28;20237;-54
2021/01/25 03:45:11;;;;;;;10.43;8.50;;;31.70;73.50;;;;;;5024850;28;20229;-51
2021/01/25 03:47:42;;;;;;;8.32;7.22;;;31.70;73.50;;;;;;5033044;28;20710;-50
2021/01/25 03:50:14;;;;;;;8.32;6.90;;;31.80;73.60;;;;;;5021125;28;20597;-53
2021/01/25 03:52:45;;;;;;;7.28;6.53;;;31.80;73.60;;;;;;5027294;28;20641;-54
2021/01/25 03:55:15;;;;;;;8.95;8.02;;;31.90;73.90;;;;;;5031824;28;20332;-51
2021/01/25 03:57:46;;;;;;;8.98;7.93;;;32.00;73.30;;;;;;5029675;28;20709;-52
2021/01/25 04:00:19;;;;;;;8.35;7.53;;;32.00;73.50;;;;;;5014744;28;20233;-54
2021/01/25 04:02:50;;;;;;;8.82;7.95;;;32.10;72.70;;;;;;5012924;28;20246;-52
2021/01/25 04:05:21;;;;;;;10.90;7.22;;;32.20;72.60;;;;;;5013766;28;20941;-52
2021/01/25 04:07:52;;;;;;;8.70;7.82;;;32.20;72.70;;;;;;5046266;28;20245;-53
2021/01/25 04:10:23;;;;;;;8.82;7.93;;;32.20;72.30;;;;;;5045674;28;20886;-49
2021/01/25 04:12:54;;;;;;;9.55;8.18;;;32.30;72.10;;;;;;5041245;28;20245;-50
2021/01/25 04:15:26;;;;;;;9.43;8.43;;;32.30;71.70;;;;;;5028099;28;20808;-49
2021/01/25 04:17:57;;;;;;;8.40;7.57;;;32.30;71.20;;;;;;5035303;28;20313;-49
2021/01/25 04:20:28;;;;;;;8.57;7.78;;;32.40;71.50;;;;;;5029114;28;20713;-51
2021/01/25 04:22:59;;;;;;;8.90;8.10;;;32.50;71.30;;;;;;5023806;28;20643;-51
2021/01/25 04:25:29;;;;;;;10.38;9.30;;;32.50;71.10;;;;;;5029974;28;20674;-49
2021/01/25 04:28:00;;;;;;;8.98;7.90;;;32.50;70.60;;;;;;5027168;28;20646;-51
2021/01/25 04:30:32;;;;;;;8.18;6.63;;;32.60;71.20;;;;;;5019888;28;20246;-51
2021/01/25 04:33:03;;;;;;;8.25;7.45;;;32.60;71.40;;;;;;5032773;28;20296;-55
2021/01/25 04:35:39;;;;;;;8.02;6.47;;;32.50;71.30;;;;;;5035911;28;20762;-53
2021/01/25 04:38:11;;;;;;;9.63;7.03;;;32.50;71.40;;;;;;5026816;28;20717;-54
2021/01/25 04:40:41;;;;;;;8.88;7.05;;;32.60;71.50;;;;;;5028629;28;20671;-53
2021/01/25 04:43:12;;;;;;;9.27;8.35;;;32.50;71.60;;;;;;5029056;28;20684;-53
2021/01/25 04:45:44;;;;;;;8.52;7.00;;;32.50;71.40;;;;;;5027898;28;20234;-55
2021/01/25 04:48:15;;;;;;;8.02;6.65;;;32.50;71.40;;;;;;5038729;28;20841;-52
2021/01/25 04:50:46;;;;;;;10.10;6.97;;;32.50;71.50;;;;;;5032725;28;20291;-53
2021/01/25 04:53:16;;;;;;;7.53;6.65;;;32.50;71.40;;;;;;5030404;28;20253;-54
2021/01/25 04:55:47;;;;;;;9.45;6.75;;;32.50;71.50;;;;;;5028585;28;20701;-51
2021/01/25 04:58:17;;;;;;;8.50;7.40;;;32.50;71.50;;;;;;5034739;28;20229;-50
2021/01/25 05:00:49;;;;;;;8.23;6.95;;;32.50;71.80;;;;;;5029632;28;20334;-52
2021/01/25 05:03:20;;;;;;;10.20;9.20;;;32.40;71.70;;;;;;5021213;28;20689;-52
2021/01/25 05:05:51;;;;;;;8.07;7.28;;;32.40;72.20;;;;;;5025833;28;20230;-50
2021/01/25 05:08:22;;;;;;;9.18;7.82;;;32.40;72.60;;;;;;5031164;28;20241;-54
2021/01/25 05:10:53;;;;;;;8.50;7.68;;;32.40;72.60;;;;;;5029261;28;20665;-52
2021/01/25 05:13:25;;;;;;;9.45;7.88;;;32.40;72.60;;;;;;5030566;28;20676;-53
2021/01/25 05:15:56;;;;;;;9.57;8.10;;;32.30;72.50;;;;;;5028742;28;20722;-54
2021/01/25 05:18:27;;;;;;;9.00;8.10;;;32.30;72.40;;;;;;5027265;28;20288;-53
2021/01/25 05:20:58;;;;;;;8.35;7.55;;;32.30;72.70;;;;;;5029160;28;20228;-51
2021/01/25 05:23:38;;;;;;;11.13;8.15;;;32.30;72.60;;;;;;5029416;28;20234;-51
2021/01/25 05:26:08;;;;;;;9.73;8.65;;;32.40;72.80;;;;;;5025852;28;20375;-51
2021/01/25 05:28:42;;;;;;;9.95;8.23;;;32.40;72.50;;;;;;5024649;28;20242;-54
2021/01/25 05:31:22;;;;;;;8.70;7.90;;;32.40;72.30;;;;;;5026363;28;20237;-53
2021/01/25 05:33:52;;;;;;;8.80;7.90;;;32.40;72.00;;;;;;5025626;28;20296;-51
2021/01/25 05:36:23;;;;;;;9.00;7.70;;;32.40;72.00;;;;;;5025015;28;20252;-51
2021/01/25 05:38:53;;;;;;;8.63;7.38;;;32.50;71.90;;;;;;5022553;28;20827;-53
2021/01/25 05:41:24;;;;;;;8.50;7.65;;;32.50;71.90;;;;;;5024997;28;20222;-51
2021/01/25 05:43:54;;;;;;;9.98;8.55;;;32.60;71.50;;;;;;5029465;28;20681;-51
2021/01/25 05:46:26;;;;;;;8.95;8.13;;;32.70;71.00;;;;;;5029208;28;20309;-50
2021/01/25 05:48:59;;;;;;;9.95;8.95;;;32.70;70.80;;;;;;5033000;28;20253;-50
2021/01/25 05:51:33;;;;;;;8.45;7.65;;;32.80;70.40;;;;;;5030730;28;20679;-51
2021/01/25 05:54:04;;;;;;;9.70;8.68;;;32.90;70.30;;;;;;5030426;28;20345;-50
2021/01/25 05:56:35;;;;;;;10.45;9.07;;;32.90;69.30;;;;;;5031646;28;20831;-49
2021/01/25 05:59:05;;;;;;;11.27;9.43;;;32.90;69.00;;;;;;5028929;28;20230;-50
2021/01/25 06:01:37;;;;;;;10.15;9.13;;;32.90;68.90;;;;;;5030392;28;20242;-51
2021/01/25 06:04:08;;;;;;;10.75;9.65;;;33.00;68.90;;;;;;5029269;28;20238;-52
2021/01/25 06:06:39;;;;;;;8.32;7.53;;;33.00;68.70;;;;;;5031062;28;20230;-53
2021/01/25 06:09:14;;;;;;;8.85;7.95;;;33.10;68.90;;;;;;5029187;28;20233;-56
2021/01/25 06:11:46;;;;;;;10.30;9.25;;;33.10;68.80;;;;;;5028104;28;20703;-55
2021/01/25 06:14:22;;;;;;;8.93;8.18;;;33.10;68.10;;;;;;5029460;28;20230;-56
2021/01/25 06:16:54;;;;;;;8.57;7.65;;;33.10;68.00;;;;;;4968907;28;20403;-55
2021/01/25 06:19:26;;;;;;;9.50;7.38;;;33.10;68.40;;;;;;4969442;28;20224;-55
2021/01/25 06:21:57;;;;;;;9.00;7.70;;;33.10;68.30;;;;;;4968867;28;20299;-56
2021/01/25 06:24:28;;;;;;;9.75;8.75;;;33.10;68.10;;;;;;4969315;28;20336;-54
2021/01/25 06:27:01;;;;;;;8.73;7.70;;;33.10;68.00;;;;;;4970573;28;20228;-51
2021/01/25 06:29:32;;;;;;;9.02;8.13;;;33.10;68.20;;;;;;4970692;28;20236;-54
2021/01/25 06:32:04;;;;;;;9.73;8.60;;;33.10;68.20;;;;;;4969184;28;20310;-54
2021/01/25 06:34:37;;;;;;;10.85;9.30;;;33.10;67.80;;;;;;4918578;29;20716;-52
2021/01/25 06:37:10;;;;;;;10.20;8.10;;;33.00;68.00;;;;;;4894572;29;20802;-51
2021/01/25 06:39:45;;;;;;;8.50;7.70;;;33.00;68.30;;;;;;4895443;29;20290;-54
2021/01/25 06:42:18;;;;;;;9.80;8.90;;;33.00;68.20;;;;;;4939248;28;20308;-55
2021/01/25 06:44:50;;;;;;;8.30;7.32;;;33.00;68.80;;;;;;4957374;28;20728;-55
2021/01/25 06:47:21;;;;;;;9.45;7.38;;;33.00;69.30;;;;;;4913286;29;20270;-52
2021/01/25 06:49:52;;;;;;;8.57;7.45;;;33.00;69.60;;;;;;4911951;29;20242;-50
2021/01/25 06:52:23;;;;;;;8.43;6.78;;;33.10;69.90;;;;;;4853046;29;20245;-51
2021/01/25 06:54:58;;;;;;;9.10;7.68;;;33.10;69.70;;;;;;4853647;29;20356;-52
2021/01/25 06:57:29;;;;;;;9.13;7.53;;;33.10;69.60;;;;;;4825991;29;20235;-52
2021/01/25 07:00:00;;;;;;;8.45;7.28;;;33.10;69.80;;;;;;4832008;29;20237;-52
2021/01/25 07:02:31;;;;;;;8.52;7.38;;;33.00;69.90;;;;;;4808725;29;20230;-54
2021/01/25 07:05:02;;;;;;;9.60;7.13;;;33.00;69.90;;;;;;4794197;29;20320;-51
2021/01/25 07:07:34;;;;;;;7.22;6.50;;;33.00;69.80;;;;;;4809961;29;20265;-53
2021/01/25 07:10:08;;;;;;;10.38;6.80;;;33.00;70.00;;;;;;4815763;29;20283;-54
2021/01/25 07:12:39;;;;;;;8.88;7.97;;;32.90;69.30;;;;;;4807585;29;20233;-50
2021/01/25 07:15:11;;;;;;;9.68;8.00;;;32.90;70.30;;;;;;4759241;30;20637;-52
2021/01/25 07:17:45;;;;;;;8.50;6.55;;;33.00;70.00;;;;;;4802838;29;20688;-49
2021/01/25 07:20:16;;;;;;;8.55;7.53;;;33.00;70.30;;;;;;4853029;29;20236;-51
2021/01/25 07:22:47;;;;;;;7.25;6.03;;;33.10;70.30;;;;;;4895308;29;20235;-56
2021/01/25 07:25:18;;;;;;;8.63;6.93;;;33.20;70.30;;;;;;4906040;29;20253;-51
2021/01/25 07:27:48;;;;;;;10.25;6.60;;;33.30;70.20;;;;;;4866509;29;20244;-51
2021/01/25 07:30:19;;;;;;;7.47;6.78;;;33.30;69.80;;;;;;4868936;29;20240;-55
2021/01/25 07:32:52;;;;;;;7.72;6.90;;;33.40;69.50;;;;;;4892833;29;20222;-56
2021/01/25 07:35:28;;;;;;;9.98;6.53;;;33.30;69.00;;;;;;4900289;29;21019;-54
2021/01/25 07:37:59;;;;;;;7.68;6.90;;;33.30;69.00;;;;;;4887580;29;20668;-54
2021/01/25 07:40:29;;;;;;;8.10;7.35;;;33.30;68.90;;;;;;4890299;29;20246;-50
2021/01/25 07:43:02;;;;;;;8.65;7.15;;;33.20;68.80;;;;;;4863928;29;20254;-53
2021/01/25 07:45:32;;;;;;;8.00;7.00;;;33.10;68.60;;;;;;4896192;29;20233;-53
2021/01/25 07:48:04;;;;;;;8.57;7.18;;;33.10;69.70;;;;;;4922891;29;20226;-55
2021/01/25 07:50:35;;;;;;;7.63;6.93;;;33.00;69.10;;;;;;4922251;29;20234;-54
2021/01/25 07:53:06;;;;;;;7.90;6.88;;;33.00;69.20;;;;;;4926066;29;20240;-53
2021/01/25 07:55:38;;;;;;;9.30;6.78;;;33.00;69.40;;;;;;4925834;29;20327;-55
2021/01/25 07:58:09;;;;;;;7.72;6.47;;;32.90;69.20;;;;;;4922622;29;20227;-51
2021/01/25 08:00:40;;;;;;;7.80;7.00;;;32.90;69.70;;;;;;4908892;29;20235;-53
2021/01/25 08:03:16;;;;;;;8.52;6.57;;;32.90;69.60;;;;;;4929752;28;20970;-52
2021/01/25 08:05:49;;;;;;;8.43;7.03;;;32.90;69.30;;;;;;4945682;28;20671;-52
2021/01/25 08:08:20;;;;;;;7.35;6.65;;;32.90;69.40;;;;;;4974876;28;20230;-54
2021/01/25 08:10:51;;;;;;;7.72;6.28;;;32.90;69.40;;;;;;5013952;28;20226;-54
2021/01/25 08:13:24;;;;;;;8.57;7.22;;;33.00;69.30;;;;;;5005871;28;20233;-51
2021/01/25 08:15:59;;;;;;;6.55;5.88;;;33.00;68.70;;;;;;5015562;28;20234;-54
2021/01/25 08:18:34;;;;;;;8.00;6.85;;;33.10;69.00;;;;;;5021531;28;20322;-55
2021/01/25 08:21:04;;;;;;;7.03;6.32;;;33.10;68.50;;;;;;5021867;28;20304;-52
2021/01/25 08:23:36;;;;;;;9.38;7.53;;;33.20;68.50;;;;;;5022374;28;20227;-52
2021/01/25 08:26:07;;;;;;;7.85;7.13;;;33.30;68.00;;;;;;5025393;28;20686;-55
2021/01/25 08:28:41;;;;;;;8.75;6.75;;;33.30;67.40;;;;;;5014594;28;20614;-52
2021/01/25 08:31:16;;;;;;;7.90;7.15;;;33.30;67.30;;;;;;5026515;28;20225;-55
2021/01/25 08:33:59;;;;;;;8.55;7.13;;;33.30;67.80;;;;;;5022425;28;20261;-56
2021/01/25 08:36:34;;;;;;;7.95;6.70;;;33.30;68.00;;;;;;5021777;28;20712;-54
2021/01/25 08:39:12;;;;;;;7.68;6.28;;;33.30;67.30;;;;;;5024417;28;20237;-54
2021/01/25 08:41:47;;;;;;;7.25;6.53;;;33.30;66.90;;;;;;5014422;28;20941;-51
2021/01/25 08:44:20;;;;;;;7.70;6.30;;;33.30;67.00;;;;;;5014475;28;20287;-56
2021/01/25 08:46:50;;;;;;;7.95;7.15;;;33.30;67.30;;;;;;5011827;28;20358;-54
2021/01/25 08:49:33;;;;;;;;;;;;;;;;;;;;;
2021/01/25 08:52:26;;;;;;;8.93;7.75;;;33.30;67.60;;;;;;4995537;28;20234;-52
2021/01/25 08:55:08;;;;;;;7.47;6.75;;;33.40;66.10;;;;;;5022030;28;20249;-54
2021/01/25 08:57:39;;;;;;;7.38;6.68;;;33.50;66.10;;;;;;4966406;28;20700;-56
2021/01/25 09:00:16;;;;;;;9.25;7.32;;;33.50;66.40;;;;;;5017824;28;20329;-56
2021/01/25 09:02:48;;;;;;;10.23;7.88;;;33.50;66.00;;;;;;5006538;28;20696;-53
2021/01/25 09:05:22;;;;;;;6.90;6.20;;;33.50;66.30;;;;;;5017406;28;20278;-53
2021/01/25 09:07:53;;;;;;;7.43;6.72;;;33.50;66.80;;;;;;5016409;28;20837;-54
2021/01/25 09:10:23;;;;;;;7.85;6.43;;;33.60;66.90;;;;;;5017329;28;20822;-56
2021/01/25 09:12:54;;;;;;;7.25;6.53;;;33.60;66.70;;;;;;5016698;28;20223;-53
2021/01/25 09:15:26;;;;;;;9.32;7.28;;;33.70;66.60;;;;;;5023157;28;20640;-56
2021/01/25 09:17:58;;;;;;;7.57;6.38;;;33.70;65.80;;;;;;5015727;28;20235;-54
2021/01/25 09:20:29;;;;;;;7.50;6.72;;;33.70;66.10;;;;;;5022432;28;20234;-52
2021/01/25 09:22:59;;;;;;;8.00;7.20;;;33.70;66.20;;;;;;5017906;28;20306;-54
2021/01/25 09:25:31;;;;;;;9.30;7.07;;;33.70;65.90;;;;;;5024052;28;20234;-54
2021/01/25 09:28:01;;;;;;;9.70;8.57;;;33.70;65.60;;;;;;5023651;28;20643;-52
2021/01/25 09:30:33;;;;;;;8.35;7.35;;;33.70;65.40;;;;;;5022227;28;20242;-56
2021/01/25 09:33:04;;;;;;;8.65;7.75;;;33.70;65.50;;;;;;5016066;28;20268;-52
2021/01/25 09:35:38;;;;;;;7.50;6.70;;;33.70;66.00;;;;;;5011808;28;20328;-56
2021/01/25 09:38:09;;;;;;;8.77;6.55;;;33.70;66.50;;;;;;5027996;28;20304;-53
2021/01/25 09:40:41;;;;;;;8.63;6.88;;;33.60;66.60;;;;;;5040493;28;20233;-53
2021/01/25 09:43:12;;;;;;;9.30;6.38;;;33.60;66.90;;;;;;5016331;28;20256;-51
2021/01/25 09:45:44;;;;;;;13.02;9.43;;;33.60;67.20;;;;;;5034488;28;20231;-52
2021/01/25 09:48:14;;;;;;;8.15;6.90;;;33.50;67.30;;;;;;5020496;28;20635;-51
2021/01/25 09:50:47;;;;;;;10.50;9.27;;;33.50;67.20;;;;;;5029372;28;20632;-54
2021/01/25 09:53:18;;;;;;;10.80;7.93;;;33.50;67.30;;;;;;5028704;28;20239;-51
2021/01/25 09:55:49;;;;;;;10.07;7.85;;;33.40;67.50;;;;;;5029441;28;20967;-50
2021/01/25 09:58:20;;;;;;;8.80;7.30;;;33.40;67.70;;;;;;5035042;28;20633;-51
2021/01/25 10:00:52;;;;;;;8.27;7.00;;;33.30;67.80;;;;;;5038313;28;20230;-51
2021/01/25 10:03:23;;;;;;;9.93;8.07;;;33.30;68.20;;;;;;5024805;28;20334;-55
2021/01/25 10:05:54;;;;;;;8.70;7.20;;;33.20;68.60;;;;;;4995961;28;20220;-52
2021/01/25 10:08:24;;;;;;;10.13;6.47;;;33.10;68.80;;;;;;5006168;28;20661;-54
2021/01/25 10:10:55;;;;;;;10.48;6.18;;;33.10;68.80;;;;;;5013466;28;20319;-55
2021/01/25 10:13:25;;;;;;;9.38;6.45;;;33.00;68.90;;;;;;5004628;28;20695;-53
2021/01/25 10:15:57;;;;;;;9.40;6.80;;;32.90;69.20;;;;;;5006170;28;20250;-50
2021/01/25 10:18:28;;;;;;;9.48;7.32;;;32.90;69.40;;;;;;5024340;28;20250;-53
2021/01/25 10:20:59;;;;;;;9.93;6.82;;;32.80;69.60;;;;;;5021854;28;20334;-52
2021/01/25 10:23:30;;;;;;;8.10;6.07;;;32.80;69.80;;;;;;5009219;28;20932;-54
2021/01/25 10:26:00;;;;;;;9.45;6.78;;;32.70;70.00;;;;;;5006090;28;20754;-53
2021/01/25 10:28:31;;;;;;;11.35;6.82;;;32.70;70.50;;;;;;5005777;28;21094;-52
2021/01/25 10:31:03;;;;;;;6.25;5.63;;;32.70;70.60;;;;;;5008507;28;20235;-56
2021/01/25 10:33:33;;;;;;;8.95;7.40;;;32.70;70.60;;;;;;5008127;28;20235;-56
2021/01/25 10:36:04;;;;;;;9.13;7.13;;;32.70;70.70;;;;;;5009216;28;20239;-56
2021/01/25 10:38:35;;;;;;;7.57;6.85;;;32.70;70.70;;;;;;5010510;28;20235;-52
2021/01/25 10:41:06;;;;;;;10.52;7.97;;;32.70;70.80;;;;;;5002210;28;20237;-49
2021/01/25 10:43:37;;;;;;;10.18;7.22;;;32.70;70.90;;;;;;5011139;28;20238;-50
2021/01/25 10:46:09;;;;;;;9.20;6.55;;;32.70;70.90;;;;;;5008215;28;20227;-50
2021/01/25 10:48:40;;;;;;;8.55;6.53;;;32.70;70.90;;;;;;5010047;28;20914;-50
2021/01/25 10:51:11;;;;;;;11.18;6.72;;;32.60;70.90;;;;;;5006953;28;20258;-56
2021/01/25 10:53:41;;;;;;;9.15;7.43;;;32.60;71.00;;;;;;5006477;28;20976;-55
2021/01/25 10:56:12;;;;;;;8.48;7.60;;;32.60;71.10;;;;;;4989670;28;20555;-52
2021/01/25 10:58:43;;;;;;;8.35;7.50;;;32.50;71.00;;;;;;5008110;28;20251;-54
2021/01/25 11:01:19;;;;;;;9.75;8.10;;;32.40;71.20;;;;;;5005693;28;20235;-52
2021/01/25 11:03:50;;;;;;;9.57;8.57;;;32.40;71.40;;;;;;5011506;28;20625;-55
2021/01/25 11:06:21;;;;;;;8.20;6.75;;;32.30;71.80;;;;;;5010268;28;20321;-55
2021/01/25 11:08:52;;;;;;;9.23;6.80;;;32.20;71.90;;;;;;5008188;28;20219;-54
2021/01/25 11:11:23;;;;;;;7.60;6.80;;;32.10;72.20;;;;;;5010773;28;20428;-51
2021/01/25 11:13:54;;;;;;;7.15;6.45;;;32.10;72.30;;;;;;5007641;28;20261;-55
2021/01/25 11:16:26;;;;;;;6.72;5.75;;;32.10;72.70;;;;;;5012569;28;20608;-52
2021/01/25 11:18:58;;;;;;;9.05;7.28;;;32.00;72.60;;;;;;5016974;28;20258;-54
2021/01/25 11:21:28;;;;;;;7.60;6.80;;;31.90;73.20;;;;;;5016192;28;20258;-53
2021/01/25 11:23:59;;;;;;;8.95;7.63;;;31.90;73.40;;;;;;5021164;28;20227;-54
2021/01/25 11:26:34;;;;;;;8.55;7.65;;;31.80;73.70;;;;;;5025387;28;20231;-53
2021/01/25 11:29:05;;;;;;;7.32;6.45;;;31.80;73.90;;;;;;5027207;28;20671;-52
2021/01/25 11:31:37;;;;;;;7.63;6.18;;;31.70;74.10;;;;;;5024217;28;20281;-52
2021/01/25 11:34:08;;;;;;;8.48;6.60;;;31.60;74.10;;;;;;5025761;28;20230;-56
2021/01/25 11:36:39;;;;;;;7.28;5.70;;;31.60;74.30;;;;;;5021529;28;20239;-53
2021/01/25 11:39:09;;;;;;;5.43;4.93;;;31.50;74.20;;;;;;5027077;28;20222;-55
2021/01/25 11:41:40;;;;;;;5.88;5.25;;;31.50;74.70;;;;;;5023209;28;20741;-55
2021/01/25 11:44:10;;;;;;;6.88;6.20;;;31.50;74.30;;;;;;5026776;28;20218;-54
2021/01/25 11:46:42;;;;;;;7.05;5.78;;;31.50;74.50;;;;;;5026693;28;20226;-55
2021/01/25 11:49:14;;;;;;;6.35;5.70;;;31.50;74.80;;;;;;5018387;28;20720;-56
2021/01/25 11:51:45;;;;;;;6.75;5.88;;;31.50;74.80;;;;;;5024526;28;20272;-55
2021/01/25 11:54:15;;;;;;;18.67;15.40;;;31.50;74.90;;;;;;5014115;28;20238;-57
2021/01/25 11:56:46;;;;;;;19.02;16.33;;;31.40;75.00;;;;;;5019824;28;20234;-57
2021/01/25 11:59:17;;;;;;;20.55;16.27;;;31.40;75.20;;;;;;5016560;28;20234;-56
2021/01/25 12:01:49;;;;;;;16.00;13.25;;;31.30;75.30;;;;;;5023728;28;20333;-57
2021/01/25 12:04:20;;;;;;;16.88;11.75;;;31.30;75.40;;;;;;5014256;28;20800;-56
2021/01/25 12:06:53;;;;;;;11.52;8.82;;;31.30;75.50;;;;;;5013522;28;20281;-57
2021/01/25 12:09:24;;;;;;;8.48;6.63;;;31.30;75.60;;;;;;5019781;28;20312;-57
2021/01/25 12:11:55;;;;;;;6.45;5.85;;;31.30;75.60;;;;;;5011865;28;20231;-54
2021/01/25 12:14:25;;;;;;;9.10;7.47;;;31.30;75.70;;;;;;5000892;28;20605;-53
2021/01/25 12:16:58;;;;;;;11.10;9.63;;;31.30;75.70;;;;;;5007362;28;20309;-57
2021/01/25 12:19:29;;;;;;;12.93;10.85;;;31.30;75.80;;;;;;5005631;28;20270;-57
2021/01/25 12:22:00;;;;;;;14.73;12.02;;;31.30;75.70;;;;;;5007257;28;20306;-56
2021/01/25 12:24:31;;;;;;;14.35;10.70;;;31.30;75.80;;;;;;5008205;28;20698;-56
2021/01/25 12:27:02;;;;;;;12.68;10.98;;;31.30;75.80;;;;;;5005095;28;20802;-57
2021/01/25 12:29:33;;;;;;;12.68;8.43;;;31.30;75.80;;;;;;5013084;28;20239;-52
2021/01/25 12:32:05;;;;;;;10.65;8.65;;;31.30;75.80;;;;;;5013715;28;20703;-56
2021/01/25 12:34:36;;;;;;;7.80;6.80;;;31.30;75.80;;;;;;5006205;28;20230;-53
2021/01/25 12:37:07;;;;;;;8.55;6.78;;;31.30;75.70;;;;;;5014550;28;20326;-55
2021/01/25 12:39:40;;;;;;;7.18;6.38;;;31.30;75.70;;;;;;5014630;28;20248;-53
2021/01/25 12:42:11;;;;;;;7.03;6.32;;;31.30;75.80;;;;;;5014502;28;20232;-51
2021/01/25 12:44:43;;;;;;;8.88;6.47;;;31.30;75.80;;;;;;5011620;28;20281;-53
2021/01/25 12:47:15;;;;;;;9.10;6.57;;;31.20;75.70;;;;;;5006096;28;20660;-56
2021/01/25 12:49:46;;;;;;;7.05;6.30;;;31.20;75.80;;;;;;5008547;28;20234;-53
2021/01/25 12:52:17;;;;;;;8.48;6.82;;;31.20;75.70;;;;;;5018954;28;20241;-52
2021/01/25 12:54:47;;;;;;;10.27;7.53;;;31.20;75.80;;;;;;5005125;28;20227;-52
2021/01/25 12:57:18;;;;;;;10.80;7.53;;;31.20;75.80;;;;;;5008092;28;20246;-57
2021/01/25 12:59:48;;;;;;;10.77;8.63;;;31.20;75.80;;;;;;5017976;28;20284;-52
2021/01/25 13:02:20;;;;;;;13.88;11.25;;;31.20;75.80;;;;;;5006882;28;20250;-53
2021/01/25 13:04:51;;;;;;;14.30;10.48;;;31.20;75.90;;;;;;5025696;28;20233;-56
2021/01/25 13:07:25;;;;;;;14.85;11.00;;;31.10;75.70;;;;;;5027151;28;20237;-54